sensor_id;sensor_type;location;lat;lon;timestamp;P1;durP1;ratioP1;P2;durP2;ratioP2
52440;SDS011;39611;46.062;8.950;2023-09-08T00:02:10;4.60;;;3.20;;
52440;SDS011;39611;46.062;8.950;2023-09-08T00:04:37;5.63;;;3.75;;
52440;SDS011;39611;46.062;8.950;2023-09-08T00:07:04;6.15;;;3.63;;
52440;SDS011;39611;46.062;8.950;2023-09-08T00:09:30;6.93;;;3.53;;
52440;SDS011;39611;46.062;8.950;2023-09-08T00:11:57;5.85;;;3.28;;
52440;SDS011;39611;46.062;8.950;2023-09-08T00:14:23;8.38;;;3.42;;
52440;SDS011;39611;46.062;8.950;2023-09-08T00:16:51;5.60;;;3.63;;
52440;SDS011;39611;46.062;8.950;2023-09-08T00:19:21;8.07;;;4.28;;
52440;SDS011;39611;46.062;8.950;2023-09-08T00:21:49;4.68;;;3.42;;
52440;SDS011;39611;46.062;8.950;2023-09-08T00:24:15;5.18;;;3.67;;
52440;SDS011;39611;46.062;8.950;2023-09-08T00:26:42;5.82;;;3.67;;
52440;SDS011;39611;46.062;8.950;2023-09-08T00:29:08;6.40;;;3.88;;
52440;SDS011;39611;46.062;8.950;2023-09-08T00:31:34;5.20;;;3.58;;
52440;SDS011;39611;46.062;8.950;2023-09-08T00:34:01;5.72;;;3.65;;
52440;SDS011;39611;46.062;8.950;2023-09-08T00:36:27;6.15;;;3.70;;
52440;SDS011;39611;46.062;8.950;2023-09-08T00:38:54;7.25;;;3.78;;
52440;SDS011;39611;46.062;8.950;2023-09-08T00:41:20;6.35;;;3.90;;
52440;SDS011;39611;46.062;8.950;2023-09-08T00:43:47;5.22;;;3.60;;
52440;SDS011;39611;46.062;8.950;2023-09-08T00:46:13;6.80;;;3.40;;
52440;SDS011;39611;46.062;8.950;2023-09-08T00:48:40;5.68;;;3.88;;
52440;SDS011;39611;46.062;8.950;2023-09-08T00:51:07;5.75;;;3.38;;
52440;SDS011;39611;46.062;8.950;2023-09-08T00:53:36;7.07;;;4.35;;
52440;SDS011;39611;46.062;8.950;2023-09-08T00:56:03;7.70;;;3.78;;
52440;SDS011;39611;46.062;8.950;2023-09-08T00:58:30;8.07;;;3.92;;
52440;SDS011;39611;46.062;8.950;2023-09-08T01:00:57;5.72;;;3.67;;
52440;SDS011;39611;46.062;8.950;2023-09-08T01:03:24;5.93;;;3.58;;
52440;SDS011;39611;46.062;8.950;2023-09-08T01:05:51;7.30;;;3.67;;
52440;SDS011;39611;46.062;8.950;2023-09-08T01:08:18;5.43;;;3.15;;
52440;SDS011;39611;46.062;8.950;2023-09-08T01:10:46;6.18;;;3.90;;
52440;SDS011;39611;46.062;8.950;2023-09-08T01:13:12;6.25;;;3.80;;
52440;SDS011;39611;46.062;8.950;2023-09-08T01:15:39;7.22;;;3.95;;
52440;SDS011;39611;46.062;8.950;2023-09-08T01:18:05;6.72;;;3.95;;
52440;SDS011;39611;46.062;8.950;2023-09-08T01:26:25;6.30;;;3.72;;
52440;SDS011;39611;46.062;8.950;2023-09-08T01:28:55;6.17;;;3.80;;
52440;SDS011;39611;46.062;8.950;2023-09-08T01:31:23;7.38;;;4.18;;
52440;SDS011;39611;46.062;8.950;2023-09-08T01:33:50;7.13;;;4.53;;
52440;SDS011;39611;46.062;8.950;2023-09-08T01:36:17;8.43;;;4.45;;
52440;SDS011;39611;46.062;8.950;2023-09-08T01:38:43;8.15;;;4.57;;
52440;SDS011;39611;46.062;8.950;2023-09-08T01:41:10;7.75;;;3.90;;
52440;SDS011;39611;46.062;8.950;2023-09-08T01:43:36;7.93;;;4.18;;
52440;SDS011;39611;46.062;8.950;2023-09-08T01:46:03;5.85;;;3.90;;
52440;SDS011;39611;46.062;8.950;2023-09-08T01:48:29;6.30;;;4.15;;
52440;SDS011;39611;46.062;8.950;2023-09-08T01:50:56;6.80;;;3.90;;
52440;SDS011;39611;46.062;8.950;2023-09-08T01:53:22;6.18;;;4.38;;
52440;SDS011;39611;46.062;8.950;2023-09-08T01:55:48;6.43;;;4.13;;
52440;SDS011;39611;46.062;8.950;2023-09-08T01:58:15;5.30;;;3.88;;
52440;SDS011;39611;46.062;8.950;2023-09-08T02:00:41;9.50;;;4.63;;
52440;SDS011;39611;46.062;8.950;2023-09-08T02:03:08;6.10;;;3.90;;
52440;SDS011;39611;46.062;8.950;2023-09-08T02:05:34;7.13;;;3.92;;
52440;SDS011;39611;46.062;8.950;2023-09-08T02:08:05;6.88;;;4.28;;
52440;SDS011;39611;46.062;8.950;2023-09-08T02:10:31;5.88;;;3.95;;
52440;SDS011;39611;46.062;8.950;2023-09-08T02:12:58;7.43;;;4.63;;
52440;SDS011;39611;46.062;8.950;2023-09-08T02:15:24;7.93;;;4.15;;
52440;SDS011;39611;46.062;8.950;2023-09-08T02:17:54;6.78;;;4.28;;
52440;SDS011;39611;46.062;8.950;2023-09-08T02:20:21;5.68;;;3.92;;
52440;SDS011;39611;46.062;8.950;2023-09-08T02:22:49;7.18;;;3.85;;
52440;SDS011;39611;46.062;8.950;2023-09-08T02:25:19;8.20;;;4.43;;
52440;SDS011;39611;46.062;8.950;2023-09-08T02:27:45;6.57;;;4.20;;
52440;SDS011;39611;46.062;8.950;2023-09-08T02:30:12;4.35;;;3.40;;
52440;SDS011;39611;46.062;8.950;2023-09-08T02:32:38;4.55;;;3.35;;
52440;SDS011;39611;46.062;8.950;2023-09-08T02:35:09;6.60;;;4.10;;
52440;SDS011;39611;46.062;8.950;2023-09-08T02:37:36;5.80;;;3.55;;
52440;SDS011;39611;46.062;8.950;2023-09-08T02:40:02;8.75;;;4.20;;
52440;SDS011;39611;46.062;8.950;2023-09-08T02:42:30;7.47;;;3.75;;
52440;SDS011;39611;46.062;8.950;2023-09-08T02:44:56;7.18;;;4.15;;
52440;SDS011;39611;46.062;8.950;2023-09-08T02:47:22;5.10;;;3.72;;
52440;SDS011;39611;46.062;8.950;2023-09-08T02:49:49;10.73;;;4.03;;
52440;SDS011;39611;46.062;8.950;2023-09-08T02:52:15;6.47;;;3.83;;
52440;SDS011;39611;46.062;8.950;2023-09-08T02:54:42;6.45;;;4.10;;
52440;SDS011;39611;46.062;8.950;2023-09-08T02:57:08;6.18;;;3.50;;
52440;SDS011;39611;46.062;8.950;2023-09-08T02:59:34;5.65;;;3.50;;
52440;SDS011;39611;46.062;8.950;2023-09-08T03:02:01;5.60;;;3.22;;
52440;SDS011;39611;46.062;8.950;2023-09-08T03:04:27;7.78;;;4.43;;
52440;SDS011;39611;46.062;8.950;2023-09-08T03:06:54;7.00;;;3.42;;
52440;SDS011;39611;46.062;8.950;2023-09-08T03:09:20;5.80;;;3.78;;
52440;SDS011;39611;46.062;8.950;2023-09-08T03:11:47;7.95;;;4.03;;
52440;SDS011;39611;46.062;8.950;2023-09-08T03:14:13;7.60;;;4.00;;
52440;SDS011;39611;46.062;8.950;2023-09-08T03:16:40;8.65;;;3.67;;
52440;SDS011;39611;46.062;8.950;2023-09-08T03:19:06;5.35;;;3.50;;
52440;SDS011;39611;46.062;8.950;2023-09-08T03:21:33;5.18;;;3.40;;
52440;SDS011;39611;46.062;8.950;2023-09-08T03:23:59;8.07;;;4.07;;
52440;SDS011;39611;46.062;8.950;2023-09-08T03:26:26;6.28;;;3.67;;
52440;SDS011;39611;46.062;8.950;2023-09-08T03:28:52;5.70;;;3.72;;
52440;SDS011;39611;46.062;8.950;2023-09-08T03:31:18;5.57;;;3.58;;
52440;SDS011;39611;46.062;8.950;2023-09-08T03:33:45;5.18;;;3.58;;
52440;SDS011;39611;46.062;8.950;2023-09-08T03:36:12;5.88;;;3.83;;
52440;SDS011;39611;46.062;8.950;2023-09-08T03:38:39;6.05;;;3.83;;
52440;SDS011;39611;46.062;8.950;2023-09-08T03:41:06;7.20;;;3.97;;
52440;SDS011;39611;46.062;8.950;2023-09-08T03:43:33;6.20;;;4.15;;
52440;SDS011;39611;46.062;8.950;2023-09-08T03:46:00;7.13;;;4.00;;
52440;SDS011;39611;46.062;8.950;2023-09-08T03:48:26;6.82;;;4.13;;
52440;SDS011;39611;46.062;8.950;2023-09-08T03:50:53;6.35;;;3.85;;
52440;SDS011;39611;46.062;8.950;2023-09-08T03:53:19;6.38;;;3.75;;
52440;SDS011;39611;46.062;8.950;2023-09-08T03:55:46;7.22;;;4.30;;
52440;SDS011;39611;46.062;8.950;2023-09-08T03:58:12;7.38;;;3.80;;
52440;SDS011;39611;46.062;8.950;2023-09-08T04:00:39;7.30;;;4.07;;
52440;SDS011;39611;46.062;8.950;2023-09-08T04:03:05;7.78;;;3.80;;
52440;SDS011;39611;46.062;8.950;2023-09-08T04:05:32;5.72;;;3.92;;
52440;SDS011;39611;46.062;8.950;2023-09-08T04:07:58;5.72;;;3.53;;
52440;SDS011;39611;46.062;8.950;2023-09-08T04:10:25;7.82;;;4.30;;
52440;SDS011;39611;46.062;8.950;2023-09-08T04:12:51;5.88;;;3.75;;
52440;SDS011;39611;46.062;8.950;2023-09-08T04:15:18;6.57;;;4.03;;
52440;SDS011;39611;46.062;8.950;2023-09-08T04:17:45;7.03;;;3.97;;
52440;SDS011;39611;46.062;8.950;2023-09-08T04:20:11;6.50;;;3.33;;
52440;SDS011;39611;46.062;8.950;2023-09-08T04:22:40;6.57;;;3.97;;
52440;SDS011;39611;46.062;8.950;2023-09-08T04:25:07;5.72;;;3.75;;
52440;SDS011;39611;46.062;8.950;2023-09-08T04:27:34;5.82;;;3.97;;
52440;SDS011;39611;46.062;8.950;2023-09-08T04:30:03;8.13;;;3.90;;
52440;SDS011;39611;46.062;8.950;2023-09-08T04:32:31;11.30;;;4.57;;
52440;SDS011;39611;46.062;8.950;2023-09-08T04:34:57;5.97;;;4.20;;
52440;SDS011;39611;46.062;8.950;2023-09-08T04:37:24;6.40;;;4.30;;
52440;SDS011;39611;46.062;8.950;2023-09-08T04:39:50;6.60;;;3.92;;
52440;SDS011;39611;46.062;8.950;2023-09-08T04:42:17;6.15;;;4.45;;
52440;SDS011;39611;46.062;8.950;2023-09-08T04:44:43;7.72;;;4.07;;
52440;SDS011;39611;46.062;8.950;2023-09-08T04:47:13;6.45;;;4.43;;
52440;SDS011;39611;46.062;8.950;2023-09-08T04:49:39;6.80;;;4.05;;
52440;SDS011;39611;46.062;8.950;2023-09-08T04:52:05;7.78;;;4.00;;
52440;SDS011;39611;46.062;8.950;2023-09-08T04:54:32;5.65;;;3.90;;
52440;SDS011;39611;46.062;8.950;2023-09-08T04:56:59;8.98;;;4.15;;
52440;SDS011;39611;46.062;8.950;2023-09-08T04:59:45;5.63;;;4.18;;
52440;SDS011;39611;46.062;8.950;2023-09-08T05:02:12;6.35;;;4.40;;
52440;SDS011;39611;46.062;8.950;2023-09-08T05:04:38;6.70;;;3.92;;
52440;SDS011;39611;46.062;8.950;2023-09-08T05:07:05;6.30;;;4.00;;
52440;SDS011;39611;46.062;8.950;2023-09-08T05:09:31;7.38;;;4.05;;
52440;SDS011;39611;46.062;8.950;2023-09-08T05:11:59;6.35;;;4.10;;
52440;SDS011;39611;46.062;8.950;2023-09-08T05:14:26;6.93;;;4.30;;
52440;SDS011;39611;46.062;8.950;2023-09-08T05:16:52;6.05;;;3.90;;
52440;SDS011;39611;46.062;8.950;2023-09-08T05:19:22;7.15;;;3.92;;
52440;SDS011;39611;46.062;8.950;2023-09-08T05:21:50;6.25;;;4.25;;
52440;SDS011;39611;46.062;8.950;2023-09-08T05:24:18;7.07;;;4.05;;
52440;SDS011;39611;46.062;8.950;2023-09-08T05:26:44;6.97;;;4.25;;
52440;SDS011;39611;46.062;8.950;2023-09-08T05:29:11;6.85;;;4.30;;
52440;SDS011;39611;46.062;8.950;2023-09-08T05:31:37;8.48;;;4.07;;
52440;SDS011;39611;46.062;8.950;2023-09-08T05:34:03;7.10;;;4.13;;
52440;SDS011;39611;46.062;8.950;2023-09-08T05:36:30;6.63;;;3.75;;
52440;SDS011;39611;46.062;8.950;2023-09-08T05:38:58;9.07;;;4.25;;
52440;SDS011;39611;46.062;8.950;2023-09-08T05:41:25;6.63;;;4.38;;
52440;SDS011;39611;46.062;8.950;2023-09-08T05:43:51;5.60;;;3.90;;
52440;SDS011;39611;46.062;8.950;2023-09-08T05:46:18;6.75;;;4.60;;
52440;SDS011;39611;46.062;8.950;2023-09-08T05:48:44;7.63;;;4.18;;
52440;SDS011;39611;46.062;8.950;2023-09-08T05:51:11;6.40;;;4.30;;
52440;SDS011;39611;46.062;8.950;2023-09-08T05:53:38;7.03;;;3.97;;
52440;SDS011;39611;46.062;8.950;2023-09-08T05:56:06;6.25;;;3.90;;
52440;SDS011;39611;46.062;8.950;2023-09-08T05:58:33;6.93;;;3.88;;
52440;SDS011;39611;46.062;8.950;2023-09-08T06:01:03;5.50;;;3.63;;
52440;SDS011;39611;46.062;8.950;2023-09-08T06:03:30;7.15;;;4.15;;
52440;SDS011;39611;46.062;8.950;2023-09-08T06:05:57;7.00;;;4.35;;
52440;SDS011;39611;46.062;8.950;2023-09-08T06:08:23;6.53;;;4.13;;
52440;SDS011;39611;46.062;8.950;2023-09-08T06:10:50;8.00;;;5.03;;
52440;SDS011;39611;46.062;8.950;2023-09-08T06:13:17;8.65;;;5.15;;
52440;SDS011;39611;46.062;8.950;2023-09-08T06:15:43;7.43;;;4.30;;
52440;SDS011;39611;46.062;8.950;2023-09-08T06:18:10;6.15;;;4.50;;
52440;SDS011;39611;46.062;8.950;2023-09-08T06:20:43;10.32;;;5.28;;
52440;SDS011;39611;46.062;8.950;2023-09-08T06:23:10;8.40;;;4.93;;
52440;SDS011;39611;46.062;8.950;2023-09-08T06:25:36;9.65;;;4.78;;
52440;SDS011;39611;46.062;8.950;2023-09-08T06:28:03;7.88;;;4.82;;
52440;SDS011;39611;46.062;8.950;2023-09-08T06:30:29;6.35;;;4.60;;
52440;SDS011;39611;46.062;8.950;2023-09-08T06:32:56;10.98;;;4.72;;
52440;SDS011;39611;46.062;8.950;2023-09-08T06:35:26;7.15;;;4.97;;
52440;SDS011;39611;46.062;8.950;2023-09-08T06:37:53;9.18;;;4.28;;
52440;SDS011;39611;46.062;8.950;2023-09-08T06:40:19;9.80;;;4.93;;
52440;SDS011;39611;46.062;8.950;2023-09-08T06:42:45;6.82;;;4.53;;
52440;SDS011;39611;46.062;8.950;2023-09-08T06:45:12;9.85;;;4.95;;
52440;SDS011;39611;46.062;8.950;2023-09-08T06:47:39;8.50;;;5.13;;
52440;SDS011;39611;46.062;8.950;2023-09-08T06:50:06;8.98;;;5.15;;
52440;SDS011;39611;46.062;8.950;2023-09-08T06:52:33;8.23;;;5.30;;
52440;SDS011;39611;46.062;8.950;2023-09-08T06:54:59;8.38;;;4.97;;
52440;SDS011;39611;46.062;8.950;2023-09-08T06:57:26;11.18;;;5.68;;
52440;SDS011;39611;46.062;8.950;2023-09-08T06:59:52;10.88;;;6.43;;
52440;SDS011;39611;46.062;8.950;2023-09-08T07:02:19;10.07;;;5.47;;
52440;SDS011;39611;46.062;8.950;2023-09-08T07:04:46;9.82;;;5.07;;
52440;SDS011;39611;46.062;8.950;2023-09-08T07:07:13;8.85;;;4.88;;
52440;SDS011;39611;46.062;8.950;2023-09-08T07:09:40;7.43;;;4.28;;
52440;SDS011;39611;46.062;8.950;2023-09-08T07:12:06;9.25;;;4.63;;
52440;SDS011;39611;46.062;8.950;2023-09-08T07:14:33;7.95;;;5.05;;
52440;SDS011;39611;46.062;8.950;2023-09-08T07:16:59;10.52;;;5.22;;
52440;SDS011;39611;46.062;8.950;2023-09-08T07:19:26;7.85;;;5.00;;
52440;SDS011;39611;46.062;8.950;2023-09-08T07:21:53;8.30;;;4.63;;
52440;SDS011;39611;46.062;8.950;2023-09-08T07:24:20;7.38;;;4.95;;
52440;SDS011;39611;46.062;8.950;2023-09-08T07:26:47;9.35;;;4.57;;
52440;SDS011;39611;46.062;8.950;2023-09-08T07:29:13;6.78;;;4.90;;
52440;SDS011;39611;46.062;8.950;2023-09-08T07:31:40;7.43;;;4.85;;
52440;SDS011;39611;46.062;8.950;2023-09-08T07:34:07;6.97;;;4.47;;
52440;SDS011;39611;46.062;8.950;2023-09-08T07:36:35;9.10;;;4.50;;
52440;SDS011;39611;46.062;8.950;2023-09-08T07:39:02;7.80;;;4.47;;
52440;SDS011;39611;46.062;8.950;2023-09-08T07:41:29;10.65;;;4.95;;
52440;SDS011;39611;46.062;8.950;2023-09-08T07:43:55;7.55;;;4.60;;
52440;SDS011;39611;46.062;8.950;2023-09-08T07:46:22;9.27;;;4.93;;
52440;SDS011;39611;46.062;8.950;2023-09-08T07:48:49;8.63;;;5.10;;
52440;SDS011;39611;46.062;8.950;2023-09-08T07:51:16;9.75;;;4.72;;
52440;SDS011;39611;46.062;8.950;2023-09-08T07:53:42;7.25;;;5.18;;
52440;SDS011;39611;46.062;8.950;2023-09-08T07:56:09;7.18;;;4.90;;
52440;SDS011;39611;46.062;8.950;2023-09-08T07:58:36;7.90;;;4.75;;
52440;SDS011;39611;46.062;8.950;2023-09-08T08:01:03;6.25;;;4.63;;
52440;SDS011;39611;46.062;8.950;2023-09-08T08:03:29;9.52;;;4.38;;
52440;SDS011;39611;46.062;8.950;2023-09-08T08:05:56;8.35;;;4.63;;
52440;SDS011;39611;46.062;8.950;2023-09-08T08:08:24;7.05;;;4.90;;
52440;SDS011;39611;46.062;8.950;2023-09-08T08:10:51;10.80;;;4.70;;
52440;SDS011;39611;46.062;8.950;2023-09-08T08:13:17;8.23;;;4.57;;
52440;SDS011;39611;46.062;8.950;2023-09-08T08:15:44;7.35;;;4.55;;
52440;SDS011;39611;46.062;8.950;2023-09-08T08:18:13;7.88;;;4.50;;
52440;SDS011;39611;46.062;8.950;2023-09-08T08:20:40;7.78;;;4.85;;
52440;SDS011;39611;46.062;8.950;2023-09-08T08:23:06;7.15;;;3.97;;
52440;SDS011;39611;46.062;8.950;2023-09-08T08:25:33;10.57;;;4.85;;
52440;SDS011;39611;46.062;8.950;2023-09-08T08:28:00;6.55;;;4.13;;
52440;SDS011;39611;46.062;8.950;2023-09-08T08:30:27;8.68;;;4.07;;
52440;SDS011;39611;46.062;8.950;2023-09-08T08:32:54;7.22;;;4.60;;
52440;SDS011;39611;46.062;8.950;2023-09-08T08:35:21;6.53;;;3.92;;
52440;SDS011;39611;46.062;8.950;2023-09-08T08:37:47;9.45;;;4.30;;
52440;SDS011;39611;46.062;8.950;2023-09-08T08:40:14;6.10;;;3.85;;
52440;SDS011;39611;46.062;8.950;2023-09-08T08:42:40;6.32;;;3.42;;
52440;SDS011;39611;46.062;8.950;2023-09-08T08:45:08;6.97;;;3.72;;
52440;SDS011;39611;46.062;8.950;2023-09-08T08:47:35;4.60;;;3.15;;
52440;SDS011;39611;46.062;8.950;2023-09-08T08:50:01;5.78;;;2.88;;
52440;SDS011;39611;46.062;8.950;2023-09-08T08:52:29;7.70;;;3.63;;
52440;SDS011;39611;46.062;8.950;2023-09-08T08:54:56;6.32;;;4.00;;
52440;SDS011;39611;46.062;8.950;2023-09-08T08:57:23;10.35;;;3.65;;
52440;SDS011;39611;46.062;8.950;2023-09-08T08:59:50;5.60;;;3.33;;
52440;SDS011;39611;46.062;8.950;2023-09-08T09:02:19;6.47;;;3.58;;
52440;SDS011;39611;46.062;8.950;2023-09-08T09:04:47;3.63;;;2.47;;
52440;SDS011;39611;46.062;8.950;2023-09-08T09:08:19;7.15;;;2.92;;
52440;SDS011;39611;46.062;8.950;2023-09-08T09:10:59;4.93;;;2.17;;
52440;SDS011;39611;46.062;8.950;2023-09-08T09:13:26;4.85;;;2.35;;
52440;SDS011;39611;46.062;8.950;2023-09-08T09:15:53;4.05;;;2.60;;
52440;SDS011;39611;46.062;8.950;2023-09-08T09:18:24;5.47;;;2.60;;
52440;SDS011;39611;46.062;8.950;2023-09-08T09:20:54;4.93;;;2.30;;
52440;SDS011;39611;46.062;8.950;2023-09-08T09:23:29;4.88;;;1.95;;
52440;SDS011;39611;46.062;8.950;2023-09-08T09:25:59;4.13;;;2.25;;
52440;SDS011;39611;46.062;8.950;2023-09-08T09:28:30;4.10;;;2.55;;
52440;SDS011;39611;46.062;8.950;2023-09-08T09:30:57;5.05;;;2.55;;
52440;SDS011;39611;46.062;8.950;2023-09-08T09:33:25;4.78;;;2.58;;
52440;SDS011;39611;46.062;8.950;2023-09-08T09:35:52;3.67;;;2.17;;
52440;SDS011;39611;46.062;8.950;2023-09-08T09:38:20;4.45;;;3.83;;
52440;SDS011;39611;46.062;8.950;2023-09-08T09:40:47;5.20;;;3.05;;
52440;SDS011;39611;46.062;8.950;2023-09-08T09:43:15;5.05;;;3.60;;
52440;SDS011;39611;46.062;8.950;2023-09-08T09:45:43;5.15;;;3.17;;
52440;SDS011;39611;46.062;8.950;2023-09-08T09:48:10;7.68;;;3.50;;
52440;SDS011;39611;46.062;8.950;2023-09-08T09:50:40;6.03;;;2.50;;
52440;SDS011;39611;46.062;8.950;2023-09-08T09:53:10;4.37;;;2.90;;
52440;SDS011;39611;46.062;8.950;2023-09-08T09:55:38;5.40;;;2.72;;
52440;SDS011;39611;46.062;8.950;2023-09-08T09:58:07;4.15;;;2.72;;
52440;SDS011;39611;46.062;8.950;2023-09-08T10:00:34;5.07;;;2.78;;
52440;SDS011;39611;46.062;8.950;2023-09-08T10:03:02;5.07;;;3.15;;
52440;SDS011;39611;46.062;8.950;2023-09-08T10:05:30;5.55;;;3.08;;
52440;SDS011;39611;46.062;8.950;2023-09-08T10:07:57;6.97;;;3.70;;
52440;SDS011;39611;46.062;8.950;2023-09-08T10:10:24;5.50;;;3.42;;
52440;SDS011;39611;46.062;8.950;2023-09-08T10:12:54;5.07;;;3.50;;
52440;SDS011;39611;46.062;8.950;2023-09-08T10:15:22;6.57;;;3.30;;
52440;SDS011;39611;46.062;8.950;2023-09-08T10:17:53;5.53;;;3.03;;
52440;SDS011;39611;46.062;8.950;2023-09-08T10:20:25;5.75;;;3.33;;
52440;SDS011;39611;46.062;8.950;2023-09-08T10:23:12;6.22;;;3.00;;
52440;SDS011;39611;46.062;8.950;2023-09-08T10:25:46;6.30;;;2.88;;
52440;SDS011;39611;46.062;8.950;2023-09-08T10:28:23;4.55;;;3.30;;
52440;SDS011;39611;46.062;8.950;2023-09-08T10:30:50;6.57;;;2.75;;
52440;SDS011;39611;46.062;8.950;2023-09-08T10:33:18;7.50;;;3.55;;
52440;SDS011;39611;46.062;8.950;2023-09-08T10:35:46;4.75;;;2.85;;
52440;SDS011;39611;46.062;8.950;2023-09-08T10:38:55;4.82;;;2.92;;
52440;SDS011;39611;46.062;8.950;2023-09-08T10:43:45;6.40;;;3.33;;
52440;SDS011;39611;46.062;8.950;2023-09-08T10:46:40;8.63;;;3.00;;
52440;SDS011;39611;46.062;8.950;2023-09-08T10:49:07;5.80;;;3.22;;
52440;SDS011;39611;46.062;8.950;2023-09-08T10:51:35;4.95;;;3.08;;
52440;SDS011;39611;46.062;8.950;2023-09-08T10:54:03;5.50;;;3.25;;
52440;SDS011;39611;46.062;8.950;2023-09-08T10:56:47;5.63;;;3.30;;
52440;SDS011;39611;46.062;8.950;2023-09-08T10:59:19;6.95;;;3.28;;
52440;SDS011;39611;46.062;8.950;2023-09-08T11:01:47;4.53;;;2.78;;
52440;SDS011;39611;46.062;8.950;2023-09-08T11:04:13;6.38;;;3.10;;
52440;SDS011;39611;46.062;8.950;2023-09-08T11:06:45;4.43;;;3.28;;
52440;SDS011;39611;46.062;8.950;2023-09-08T11:09:11;5.28;;;3.22;;
52440;SDS011;39611;46.062;8.950;2023-09-08T11:11:38;5.22;;;3.28;;
52440;SDS011;39611;46.062;8.950;2023-09-08T11:14:04;7.47;;;2.70;;
52440;SDS011;39611;46.062;8.950;2023-09-08T11:16:31;7.10;;;3.67;;
52440;SDS011;39611;46.062;8.950;2023-09-08T11:18:59;3.75;;;2.55;;
52440;SDS011;39611;46.062;8.950;2023-09-08T11:21:29;6.10;;;2.63;;
52440;SDS011;39611;46.062;8.950;2023-09-08T11:24:01;7.60;;;3.53;;
52440;SDS011;39611;46.062;8.950;2023-09-08T11:26:33;5.00;;;3.30;;
52440;SDS011;39611;46.062;8.950;2023-09-08T11:29:01;5.90;;;3.50;;
52440;SDS011;39611;46.062;8.950;2023-09-08T11:31:27;4.75;;;2.70;;
52440;SDS011;39611;46.062;8.950;2023-09-08T11:33:54;7.10;;;3.30;;
52440;SDS011;39611;46.062;8.950;2023-09-08T11:36:21;5.75;;;3.55;;
52440;SDS011;39611;46.062;8.950;2023-09-08T11:38:48;6.93;;;3.50;;
52440;SDS011;39611;46.062;8.950;2023-09-08T11:41:15;5.43;;;3.22;;
52440;SDS011;39611;46.062;8.950;2023-09-08T11:43:43;6.45;;;2.95;;
52440;SDS011;39611;46.062;8.950;2023-09-08T11:46:09;10.68;;;3.80;;
52440;SDS011;39611;46.062;8.950;2023-09-08T11:48:37;5.47;;;3.28;;
52440;SDS011;39611;46.062;8.950;2023-09-08T11:51:06;3.50;;;2.88;;
52440;SDS011;39611;46.062;8.950;2023-09-08T11:53:33;5.88;;;2.97;;
52440;SDS011;39611;46.062;8.950;2023-09-08T11:56:01;3.95;;;2.88;;
52440;SDS011;39611;46.062;8.950;2023-09-08T11:58:27;6.47;;;3.22;;
52440;SDS011;39611;46.062;8.950;2023-09-08T12:00:55;8.93;;;3.35;;
52440;SDS011;39611;46.062;8.950;2023-09-08T12:03:22;5.32;;;3.10;;
52440;SDS011;39611;46.062;8.950;2023-09-08T12:05:51;5.97;;;2.92;;
52440;SDS011;39611;46.062;8.950;2023-09-08T12:08:18;3.65;;;2.70;;
52440;SDS011;39611;46.062;8.950;2023-09-08T12:10:45;3.95;;;2.80;;
52440;SDS011;39611;46.062;8.950;2023-09-08T12:13:12;7.13;;;3.00;;
52440;SDS011;39611;46.062;8.950;2023-09-08T12:15:41;4.60;;;3.13;;
52440;SDS011;39611;46.062;8.950;2023-09-08T12:18:13;5.22;;;3.25;;
52440;SDS011;39611;46.062;8.950;2023-09-08T12:20:43;3.97;;;2.90;;
52440;SDS011;39611;46.062;8.950;2023-09-08T12:23:18;4.50;;;2.97;;
52440;SDS011;39611;46.062;8.950;2023-09-08T12:25:47;4.03;;;3.10;;
52440;SDS011;39611;46.062;8.950;2023-09-08T12:28:15;7.22;;;3.40;;
52440;SDS011;39611;46.062;8.950;2023-09-08T12:30:43;5.07;;;2.95;;
52440;SDS011;39611;46.062;8.950;2023-09-08T12:33:10;4.53;;;3.03;;
52440;SDS011;39611;46.062;8.950;2023-09-08T12:35:37;7.15;;;3.22;;
52440;SDS011;39611;46.062;8.950;2023-09-08T12:38:04;6.57;;;2.90;;
52440;SDS011;39611;46.062;8.950;2023-09-08T12:40:35;4.43;;;2.92;;
52440;SDS011;39611;46.062;8.950;2023-09-08T12:43:03;5.20;;;3.03;;
52440;SDS011;39611;46.062;8.950;2023-09-08T12:45:50;4.68;;;2.78;;
52440;SDS011;39611;46.062;8.950;2023-09-08T12:48:17;5.93;;;3.15;;
52440;SDS011;39611;46.062;8.950;2023-09-08T12:50:43;3.97;;;2.80;;
52440;SDS011;39611;46.062;8.950;2023-09-08T12:53:10;6.43;;;3.40;;
52440;SDS011;39611;46.062;8.950;2023-09-08T12:55:36;5.55;;;3.25;;
52440;SDS011;39611;46.062;8.950;2023-09-08T12:58:03;6.03;;;3.13;;
52440;SDS011;39611;46.062;8.950;2023-09-08T13:00:30;4.82;;;3.30;;
52440;SDS011;39611;46.062;8.950;2023-09-08T13:02:56;6.47;;;3.25;;
52440;SDS011;39611;46.062;8.950;2023-09-08T13:05:23;4.60;;;3.13;;
52440;SDS011;39611;46.062;8.950;2023-09-08T13:07:49;6.63;;;3.03;;
52440;SDS011;39611;46.062;8.950;2023-09-08T13:10:16;4.47;;;3.08;;
52440;SDS011;39611;46.062;8.950;2023-09-08T13:12:42;4.70;;;3.40;;
52440;SDS011;39611;46.062;8.950;2023-09-08T13:15:09;5.30;;;2.95;;
52440;SDS011;39611;46.062;8.950;2023-09-08T13:17:35;5.43;;;2.88;;
52440;SDS011;39611;46.062;8.950;2023-09-08T13:20:02;4.60;;;3.00;;
52440;SDS011;39611;46.062;8.950;2023-09-08T13:22:29;6.35;;;3.17;;
52440;SDS011;39611;46.062;8.950;2023-09-08T13:24:56;4.30;;;2.85;;
52440;SDS011;39611;46.062;8.950;2023-09-08T13:27:22;8.82;;;3.40;;
52440;SDS011;39611;46.062;8.950;2023-09-08T13:29:49;6.40;;;3.10;;
52440;SDS011;39611;46.062;8.950;2023-09-08T13:32:16;6.97;;;3.50;;
52440;SDS011;39611;46.062;8.950;2023-09-08T13:34:43;5.35;;;3.45;;
52440;SDS011;39611;46.062;8.950;2023-09-08T13:37:10;5.32;;;3.45;;
52440;SDS011;39611;46.062;8.950;2023-09-08T13:39:36;6.70;;;3.65;;
52440;SDS011;39611;46.062;8.950;2023-09-08T13:42:03;3.78;;;3.05;;
52440;SDS011;39611;46.062;8.950;2023-09-08T13:44:30;5.05;;;3.30;;
52440;SDS011;39611;46.062;8.950;2023-09-08T13:46:56;4.90;;;3.53;;
52440;SDS011;39611;46.062;8.950;2023-09-08T13:49:23;5.68;;;3.10;;
52440;SDS011;39611;46.062;8.950;2023-09-08T13:51:52;6.82;;;3.22;;
52440;SDS011;39611;46.062;8.950;2023-09-08T13:54:22;5.53;;;3.22;;
52440;SDS011;39611;46.062;8.950;2023-09-08T13:56:57;4.38;;;3.10;;
52440;SDS011;39611;46.062;8.950;2023-09-08T13:59:33;5.28;;;3.38;;
52440;SDS011;39611;46.062;8.950;2023-09-08T14:02:01;6.65;;;3.33;;
52440;SDS011;39611;46.062;8.950;2023-09-08T14:04:49;9.10;;;4.15;;
52440;SDS011;39611;46.062;8.950;2023-09-08T14:07:20;5.75;;;3.63;;
52440;SDS011;39611;46.062;8.950;2023-09-08T14:09:50;5.32;;;3.15;;
52440;SDS011;39611;46.062;8.950;2023-09-08T14:12:30;4.05;;;2.90;;
52440;SDS011;39611;46.062;8.950;2023-09-08T14:15:01;5.13;;;3.60;;
52440;SDS011;39611;46.062;8.950;2023-09-08T14:17:28;5.35;;;3.00;;
52440;SDS011;39611;46.062;8.950;2023-09-08T14:19:55;6.60;;;3.17;;
52440;SDS011;39611;46.062;8.950;2023-09-08T14:22:21;5.65;;;3.30;;
52440;SDS011;39611;46.062;8.950;2023-09-08T14:24:48;6.47;;;3.35;;
52440;SDS011;39611;46.062;8.950;2023-09-08T14:27:15;4.28;;;2.75;;
52440;SDS011;39611;46.062;8.950;2023-09-08T14:29:41;4.47;;;2.85;;
52440;SDS011;39611;46.062;8.950;2023-09-08T14:32:08;5.15;;;3.33;;
52440;SDS011;39611;46.062;8.950;2023-09-08T14:34:34;5.88;;;3.25;;
52440;SDS011;39611;46.062;8.950;2023-09-08T14:37:01;5.63;;;3.58;;
52440;SDS011;39611;46.062;8.950;2023-09-08T14:39:30;6.95;;;3.47;;
52440;SDS011;39611;46.062;8.950;2023-09-08T14:41:57;5.25;;;3.38;;
52440;SDS011;39611;46.062;8.950;2023-09-08T14:44:23;3.88;;;2.95;;
52440;SDS011;39611;46.062;8.950;2023-09-08T14:46:50;4.55;;;3.22;;
52440;SDS011;39611;46.062;8.950;2023-09-08T14:49:17;4.80;;;3.38;;
52440;SDS011;39611;46.062;8.950;2023-09-08T14:51:44;4.95;;;3.28;;
52440;SDS011;39611;46.062;8.950;2023-09-08T14:54:10;4.90;;;2.80;;
52440;SDS011;39611;46.062;8.950;2023-09-08T14:56:37;6.30;;;3.25;;
52440;SDS011;39611;46.062;8.950;2023-09-08T14:59:04;4.25;;;3.30;;
52440;SDS011;39611;46.062;8.950;2023-09-08T15:01:30;5.45;;;3.30;;